createdAt,value
2019-01-23T00:01:55.123Z,28.30
2019-01-23T00:04:25.507Z,28.13
2019-01-23T00:06:56.640Z,30.33
2019-01-23T00:09:26.588Z,28.50
2019-01-23T00:11:56.684Z,24.93
2019-01-23T00:14:28.727Z,28.17
2019-01-23T00:16:59.457Z,26.80
2019-01-23T00:19:30.681Z,27.10
2019-01-23T00:22:03.169Z,25.33
2019-01-23T00:24:32.929Z,27.87
2019-01-23T00:27:03.145Z,24.30
2019-01-23T00:29:34.926Z,27.50
2019-01-23T00:32:06.639Z,27.63
2019-01-23T00:34:37.793Z,28.63
2019-01-23T00:37:09.038Z,25.07
2019-01-23T00:39:39.227Z,26.60
2019-01-23T00:42:10.016Z,27.10
2019-01-23T00:44:39.793Z,27.20
2019-01-23T00:47:10.758Z,24.63
2019-01-23T00:49:42.452Z,27.27
2019-01-23T00:52:13.782Z,27.17
2019-01-23T00:54:46.607Z,26.73
2019-01-23T00:57:18.453Z,27.23
2019-01-23T00:59:52.236Z,26.37
2019-01-23T01:02:23.342Z,27.27
2019-01-23T01:04:53.522Z,23.80
2019-01-23T01:07:26.341Z,27.03
2019-01-23T01:09:58.740Z,26.37
2019-01-23T01:12:28.511Z,26.50
2019-01-23T01:14:59.630Z,23.67
2019-01-23T01:17:30.870Z,27.67
2019-01-23T01:20:01.063Z,42.30
2019-01-23T01:22:31.377Z,26.97
2019-01-23T01:25:03.278Z,26.73
2019-01-23T01:27:34.368Z,26.97
2019-01-23T01:30:08.580Z,27.23
2019-01-23T01:32:39.401Z,25.00
2019-01-23T01:35:11.180Z,26.87
2019-01-23T01:37:42.222Z,24.40
2019-01-23T01:40:16.250Z,26.93
2019-01-23T01:42:47.477Z,25.53
2019-01-23T01:45:19.159Z,27.13
2019-01-23T01:47:49.049Z,28.03
2019-01-23T01:50:20.349Z,27.80
2019-01-23T01:55:41.206Z,25.53
2019-01-23T01:58:11.517Z,27.17
2019-01-23T02:00:41.921Z,29.00
2019-01-23T02:03:15.554Z,26.40
2019-01-23T02:05:46.519Z,24.60
2019-01-23T02:08:19.435Z,27.63
2019-01-23T02:10:49.706Z,27.03
2019-01-23T02:13:22.237Z,27.27
2019-01-23T02:15:52.506Z,25.63
2019-01-23T02:18:25.086Z,27.67
2019-01-23T02:20:56.333Z,26.70
2019-01-23T02:23:29.157Z,27.40
2019-01-23T02:26:00.084Z,27.67
2019-01-23T02:28:32.536Z,28.20
2019-01-23T02:31:05.829Z,27.40
2019-01-23T02:33:40.421Z,31.00
2019-01-23T02:36:10.689Z,28.10
2019-01-23T02:38:40.870Z,23.57
2019-01-23T02:41:11.082Z,29.10
2019-01-23T02:43:43.397Z,27.60
2019-01-23T02:46:14.842Z,27.10
2019-01-23T02:48:46.985Z,27.70
2019-01-23T02:51:18.225Z,27.20
2019-01-23T02:53:48.453Z,26.60
2019-01-23T02:56:19.516Z,26.97
2019-01-23T02:58:53.249Z,26.60
2019-01-23T03:01:25.612Z,25.80
2019-01-23T03:03:59.373Z,23.03
2019-01-23T03:06:29.549Z,26.73
2019-01-23T03:09:00.711Z,26.40
2019-01-23T03:11:32.021Z,22.43
2019-01-23T03:14:04.094Z,26.00
2019-01-23T03:16:35.234Z,25.27
2019-01-23T03:19:08.076Z,22.20
2019-01-23T03:21:39.403Z,25.13
2019-01-23T03:24:11.309Z,24.93
2019-01-23T03:26:41.057Z,24.53
2019-01-23T03:29:11.250Z,21.37
2019-01-23T03:31:41.531Z,24.63
2019-01-23T03:34:33.072Z,26.07
2019-01-23T03:37:03.377Z,24.57
2019-01-23T03:39:34.614Z,25.13
2019-01-23T03:42:05.879Z,41.83
2019-01-23T03:44:38.037Z,23.97
2019-01-23T03:47:07.513Z,23.67
2019-01-23T03:49:36.988Z,20.50
2019-01-23T03:52:08.389Z,23.57
2019-01-23T03:54:40.923Z,23.53
2019-01-23T03:57:14.341Z,21.97
2019-01-23T03:59:46.837Z,23.63
2019-01-23T04:02:17.869Z,23.17
2019-01-23T04:04:48.997Z,24.23
2019-01-23T04:07:21.121Z,23.53
2019-01-23T04:09:51.365Z,24.10
2019-01-23T04:12:23.361Z,24.63
2019-01-23T04:14:54.487Z,23.53
2019-01-23T04:17:27.057Z,24.23
2019-01-23T04:19:57.271Z,23.97
2019-01-23T04:22:31.567Z,20.63
2019-01-23T04:25:01.734Z,25.30
2019-01-23T04:27:32.971Z,23.53
2019-01-23T04:30:14.138Z,24.17
2019-01-23T04:32:46.764Z,24.10
2019-01-23T04:35:19.310Z,24.43
2019-01-23T04:37:50.674Z,24.47
2019-01-23T04:40:21.855Z,24.47
2019-01-23T04:42:53.779Z,24.13
2019-01-23T04:45:26.889Z,23.47
2019-01-23T04:47:58.079Z,23.70
2019-01-23T04:50:31.498Z,24.17
2019-01-23T04:53:10.379Z,24.27
2019-01-23T04:55:42.102Z,24.03
2019-01-23T04:58:14.437Z,25.63
2019-01-23T05:00:44.714Z,24.77
2019-01-23T05:03:15.857Z,24.57
2019-01-23T05:05:47.525Z,23.53
2019-01-23T05:08:21.289Z,21.47
2019-01-23T05:10:52.407Z,23.17
2019-01-23T05:13:23.440Z,23.70
2019-01-23T05:15:54.885Z,23.60
2019-01-23T05:18:26.631Z,24.60
2019-01-23T05:20:59.462Z,23.17
2019-01-23T05:23:30.705Z,24.87
2019-01-23T05:26:01.803Z,23.77
2019-01-23T05:28:34.857Z,22.97
2019-01-23T05:31:06.892Z,23.60
2019-01-23T05:33:36.588Z,23.20
2019-01-23T05:36:06.889Z,20.90
2019-01-23T05:38:38.146Z,23.87
2019-01-23T05:41:09.387Z,23.37
2019-01-23T05:43:39.877Z,24.27
2019-01-23T05:46:10.094Z,23.80
2019-01-23T05:48:41.637Z,23.47
2019-01-23T05:51:11.418Z,23.53
2019-01-23T05:53:44.301Z,24.07
2019-01-23T05:56:14.113Z,21.40
2019-01-23T05:58:46.358Z,23.57
2019-01-23T06:01:19.322Z,23.30
2019-01-23T06:03:49.316Z,20.03
2019-01-23T06:06:19.428Z,23.10
2019-01-23T06:08:50.601Z,22.77
2019-01-23T06:11:21.778Z,23.20
2019-01-23T06:13:52.896Z,23.80
2019-01-23T06:16:24.446Z,20.87
2019-01-23T06:18:57.760Z,23.00
2019-01-23T06:21:28.069Z,20.57
2019-01-23T06:23:58.040Z,22.60
2019-01-23T06:26:30.249Z,22.83
2019-01-23T06:29:03.080Z,19.60
2019-01-23T06:31:34.289Z,22.37
2019-01-23T06:34:05.143Z,22.97
2019-01-23T06:36:36.077Z,23.50
2019-01-23T06:39:08.990Z,23.60
2019-01-23T06:41:41.131Z,20.13
2019-01-23T06:44:12.831Z,23.87
2019-01-23T06:46:43.929Z,23.07
2019-01-23T06:49:16.331Z,23.37
2019-01-23T06:51:48.849Z,23.30
2019-01-23T06:54:19.649Z,24.67
2019-01-23T06:56:49.741Z,22.93
2019-01-23T06:59:20.894Z,24.27
2019-01-23T07:01:51.289Z,24.70
2019-01-23T07:04:21.448Z,23.83
2019-01-23T07:06:52.637Z,23.53
2019-01-23T07:09:23.369Z,21.07
2019-01-23T07:11:54.597Z,23.80
2019-01-23T07:14:27.085Z,24.03
2019-01-23T07:16:58.207Z,24.40
2019-01-23T07:19:29.430Z,22.17
2019-01-23T07:21:59.609Z,26.00
2019-01-23T07:24:29.733Z,23.50
2019-01-23T07:27:00.895Z,25.10
2019-01-23T07:29:32.136Z,24.67
2019-01-23T07:32:03.349Z,22.50
2019-01-23T07:34:35.728Z,24.67
2019-01-23T07:37:07.217Z,23.97
2019-01-23T07:39:37.505Z,24.23
2019-01-23T07:42:10.350Z,25.50
2019-01-23T07:44:41.465Z,25.13
2019-01-23T07:47:12.669Z,24.57
2019-01-23T07:49:45.068Z,23.90
2019-01-23T07:52:17.176Z,23.80
2019-01-23T07:54:47.453Z,21.80
2019-01-23T07:57:18.569Z,27.70
2019-01-23T07:59:48.786Z,24.93
2019-01-23T08:02:21.407Z,23.17
2019-01-23T08:04:52.157Z,25.30
2019-01-23T08:07:23.798Z,25.60
2019-01-23T08:09:57.845Z,25.33
2019-01-23T08:12:29.091Z,25.20
2019-01-23T08:15:02.128Z,25.80
2019-01-23T08:17:33.321Z,26.17
2019-01-23T08:20:04.398Z,25.73
2019-01-23T08:22:35.035Z,22.73
2019-01-23T08:25:07.508Z,27.27
2019-01-23T08:27:38.610Z,26.80
2019-01-23T08:30:14.442Z,26.27
2019-01-23T08:32:45.908Z,26.93
2019-01-23T08:35:17.976Z,22.87
2019-01-23T08:37:51.432Z,27.17
2019-01-23T08:40:22.988Z,27.10
2019-01-23T08:42:54.501Z,26.97
2019-01-23T08:45:24.703Z,27.13
2019-01-23T08:47:56.800Z,28.13
2019-01-23T08:50:33.622Z,28.57
2019-01-23T08:53:04.884Z,27.87
2019-01-23T08:55:35.958Z,27.27
2019-01-23T08:58:06.369Z,25.47
2019-01-23T09:00:36.645Z,27.87
2019-01-23T09:03:07.354Z,27.80
2019-01-23T09:05:38.598Z,27.50
2019-01-23T09:08:11.594Z,25.90
2019-01-23T09:10:42.747Z,27.53
2019-01-23T09:13:14.817Z,27.83
2019-01-23T09:15:45.957Z,27.93
2019-01-23T09:18:16.274Z,27.43
2019-01-23T09:20:47.430Z,27.20
2019-01-23T09:23:19.169Z,26.90
2019-01-23T09:25:51.671Z,27.20
2019-01-23T09:28:21.575Z,27.10
2019-01-23T09:30:56.613Z,27.20
2019-01-23T09:33:35.773Z,28.00
2019-01-23T09:36:20.555Z,29.13
2019-01-23T09:39:09.854Z,27.47
2019-01-23T09:41:56.801Z,27.63
2019-01-23T09:44:57.776Z,26.57
2019-01-23T09:47:45.858Z,27.57
2019-01-23T09:50:25.753Z,26.90
2019-01-23T09:53:09.065Z,28.10
2019-01-23T09:55:39.293Z,28.07
2019-01-23T09:58:10.354Z,28.03
2019-01-23T10:00:40.351Z,22.83
2019-01-23T10:03:12.029Z,26.37
2019-01-23T10:05:44.766Z,25.40
2019-01-23T10:08:17.701Z,24.73
2019-01-23T10:10:48.754Z,26.00
2019-01-23T10:13:19.954Z,26.53
2019-01-23T10:15:53.312Z,26.27
2019-01-23T10:18:24.565Z,26.90
2019-01-23T10:21:02.998Z,28.00
2019-01-23T10:23:35.323Z,26.27
2019-01-23T10:26:06.505Z,25.63
2019-01-23T10:28:36.722Z,26.17
2019-01-23T10:31:07.002Z,27.40
2019-01-23T10:33:38.242Z,26.57
2019-01-23T10:36:11.402Z,26.23
2019-01-23T10:38:42.637Z,26.50
2019-01-23T10:41:13.670Z,27.50
2019-01-23T10:43:44.915Z,26.27
2019-01-23T10:46:16.013Z,26.47
2019-01-23T10:48:47.097Z,26.33
2019-01-23T10:51:19.270Z,26.07
2019-01-23T10:53:50.379Z,25.97
2019-01-23T10:56:21.606Z,26.37
2019-01-23T10:58:52.779Z,25.83
2019-01-23T11:01:26.078Z,26.57
2019-01-23T11:03:58.919Z,27.17
2019-01-23T11:06:30.127Z,26.63
2019-01-23T11:09:03.909Z,27.20
2019-01-23T11:11:35.542Z,26.23
2019-01-23T11:14:08.897Z,25.27
2019-01-23T11:16:40.898Z,24.93
2019-01-23T11:19:12.010Z,25.00
2019-01-23T11:21:44.399Z,26.57
2019-01-23T11:24:17.214Z,26.00
2019-01-23T11:26:47.482Z,26.47
2019-01-23T11:29:17.937Z,26.03
2019-01-23T11:31:48.182Z,25.37
2019-01-23T11:34:19.383Z,26.50
2019-01-23T11:36:50.437Z,27.20
2019-01-23T11:39:21.271Z,27.77
2019-01-23T11:41:51.480Z,27.40
2019-01-23T11:44:22.607Z,27.47
2019-01-23T11:46:53.750Z,27.40
2019-01-23T11:49:23.953Z,26.17
2019-01-23T11:51:56.538Z,27.47
2019-01-23T11:54:27.787Z,28.07
2019-01-23T11:56:59.025Z,29.13
2019-01-23T11:59:30.481Z,29.20
2019-01-23T12:02:00.781Z,28.83
2019-01-23T12:04:31.946Z,29.73
2019-01-23T12:07:02.217Z,29.67
2019-01-23T12:09:33.565Z,29.77
2019-01-23T12:12:03.761Z,29.37
2019-01-23T12:14:35.530Z,29.80
2019-01-23T12:17:05.825Z,29.93
2019-01-23T12:19:37.062Z,30.57
2019-01-23T12:22:08.139Z,31.30
2019-01-23T12:24:39.159Z,31.20
2019-01-23T12:27:10.310Z,29.90
2019-01-23T12:29:42.083Z,29.87
2019-01-23T12:32:12.322Z,29.70
2019-01-23T12:34:43.785Z,30.77
2019-01-23T12:37:15.227Z,28.83
2019-01-23T12:39:46.365Z,30.33
2019-01-23T12:42:17.555Z,29.73
2019-01-23T12:44:47.711Z,30.40
2019-01-23T12:47:17.901Z,29.13
2019-01-23T12:49:48.958Z,30.43
2019-01-23T12:52:21.002Z,30.90
2019-01-23T12:54:52.385Z,29.63
2019-01-23T12:57:23.625Z,28.97
2019-01-23T12:59:54.760Z,29.97
2019-01-23T13:02:24.934Z,29.83
2019-01-23T13:04:56.370Z,29.63
2019-01-23T13:07:27.837Z,29.63
2019-01-23T13:09:58.058Z,30.67
2019-01-23T13:12:29.294Z,29.17
2019-01-23T13:15:02.105Z,28.37
2019-01-23T13:17:32.375Z,28.53
2019-01-23T13:20:03.539Z,29.13
2019-01-23T13:22:37.249Z,26.30
2019-01-23T13:25:10.592Z,28.40
2019-01-23T13:27:42.591Z,27.87
2019-01-23T13:30:15.790Z,28.13
2019-01-23T13:32:48.820Z,28.87
2019-01-23T13:35:24.200Z,26.83
2019-01-23T13:37:54.629Z,26.10
2019-01-23T13:40:29.637Z,26.07
2019-01-23T13:42:59.942Z,27.73
2019-01-23T13:45:31.061Z,25.70
2019-01-23T13:48:02.547Z,25.80
2019-01-23T13:50:35.469Z,25.07
2019-01-23T13:53:06.777Z,22.83
2019-01-23T13:55:37.913Z,24.40
2019-01-23T13:58:09.042Z,21.60
2019-01-23T14:00:41.371Z,21.80
2019-01-23T14:03:13.199Z,23.63
2019-01-23T14:05:43.442Z,23.20
2019-01-23T14:08:15.924Z,22.03
2019-01-23T14:10:47.166Z,21.47
2019-01-23T14:13:18.685Z,21.07
2019-01-23T14:15:51.012Z,20.47
2019-01-23T14:18:25.382Z,21.07
2019-01-23T14:20:55.772Z,21.43
2019-01-23T14:23:28.745Z,19.40
2019-01-23T14:25:59.924Z,20.97
2019-01-23T14:28:32.502Z,19.60
2019-01-23T14:31:03.985Z,19.53
2019-01-23T14:33:37.733Z,20.30
2019-01-23T14:36:10.135Z,22.47
2019-01-23T14:38:41.231Z,21.23
2019-01-23T14:41:12.361Z,22.80
2019-01-23T14:43:44.792Z,20.77
2019-01-23T14:46:16.869Z,21.50
2019-01-23T14:48:49.365Z,26.40
2019-01-23T14:51:23.211Z,22.27
2019-01-23T14:53:54.417Z,23.50
2019-01-23T14:56:27.477Z,23.57
2019-01-23T14:58:59.216Z,23.60
2019-01-23T15:01:30.777Z,24.60
2019-01-23T15:04:01.090Z,24.17
2019-01-23T15:06:33.137Z,23.87
2019-01-23T15:09:05.734Z,25.37
2019-01-23T15:11:38.154Z,24.53
2019-01-23T15:14:09.577Z,24.17
2019-01-23T15:16:39.786Z,25.43
2019-01-23T15:19:10.854Z,25.13
2019-01-23T15:21:42.042Z,21.73
2019-01-23T15:24:14.018Z,25.87
2019-01-23T15:26:44.211Z,27.83
2019-01-23T15:29:14.373Z,26.90
2019-01-23T15:31:44.822Z,31.63
2019-01-23T15:34:16.085Z,28.47
2019-01-23T15:36:47.628Z,28.00
2019-01-23T15:39:17.762Z,25.73
2019-01-23T15:41:51.975Z,29.83
2019-01-23T15:44:24.046Z,30.67
2019-01-23T15:46:56.445Z,29.33
2019-01-23T15:49:27.718Z,29.87
2019-01-23T15:51:58.424Z,29.30
2019-01-23T15:54:29.764Z,28.27
2019-01-23T15:57:00.886Z,27.77
2019-01-23T15:59:32.026Z,29.73
2019-01-23T16:02:03.751Z,29.90
2019-01-23T16:04:35.858Z,29.63
2019-01-23T16:07:05.658Z,28.93
2019-01-23T16:09:38.480Z,24.70
2019-01-23T16:12:10.673Z,27.63
2019-01-23T16:14:41.800Z,27.13
2019-01-23T16:17:14.372Z,28.73
2019-01-23T16:19:46.706Z,25.97
2019-01-23T16:22:21.270Z,23.77
2019-01-23T16:24:53.942Z,26.10
2019-01-23T16:27:25.485Z,25.03
2019-01-23T16:29:56.626Z,24.70
2019-01-23T16:32:31.474Z,25.47
2019-01-23T16:35:00.621Z,24.23
2019-01-23T16:37:30.787Z,26.07
2019-01-23T16:40:00.982Z,21.97
2019-01-23T16:42:32.311Z,27.10
2019-01-23T16:45:02.211Z,26.20
2019-01-23T16:47:36.005Z,24.97
2019-01-23T16:50:11.258Z,27.73
2019-01-23T16:52:41.154Z,28.57
2019-01-23T16:55:13.173Z,28.37
2019-01-23T16:57:45.030Z,26.47
2019-01-23T17:00:21.498Z,24.00
2019-01-23T17:02:53.228Z,29.10
2019-01-23T17:05:29.829Z,27.63
2019-01-23T17:08:03.882Z,27.10
2019-01-23T17:10:35.079Z,27.20
2019-01-23T17:13:09.590Z,24.07
2019-01-23T17:15:41.742Z,27.43
2019-01-23T17:18:14.135Z,25.87
2019-01-23T17:20:45.731Z,27.73
2019-01-23T17:23:15.897Z,24.17
2019-01-23T17:25:47.016Z,26.47
2019-01-23T17:28:18.601Z,23.63
2019-01-23T17:30:51.000Z,27.33
2019-01-23T17:33:21.746Z,28.10
2019-01-23T17:35:51.698Z,27.87
2019-01-23T17:38:23.679Z,26.37
2019-01-23T17:40:53.952Z,27.37
2019-01-23T17:43:25.933Z,27.37
2019-01-23T17:45:58.793Z,26.73
2019-01-23T17:48:32.838Z,25.50
2019-01-23T17:51:05.864Z,29.03
2019-01-23T17:53:36.054Z,31.03
2019-01-23T17:56:08.225Z,27.20
2019-01-23T17:58:39.051Z,29.10
2019-01-23T18:01:12.187Z,30.17
2019-01-23T18:03:45.038Z,31.13
2019-01-23T18:06:16.390Z,31.73
2019-01-23T18:08:47.513Z,31.30
2019-01-23T18:11:18.649Z,31.53
2019-01-23T18:13:50.556Z,31.23
2019-01-23T18:16:20.733Z,27.00
2019-01-23T18:18:53.610Z,30.73
2019-01-23T18:21:23.956Z,31.93
2019-01-23T18:23:55.067Z,30.87
2019-01-23T18:26:27.196Z,27.30
2019-01-23T18:28:57.249Z,31.63
2019-01-23T18:31:30.330Z,29.37
2019-01-23T18:34:06.510Z,30.20
2019-01-23T18:36:42.775Z,29.50
2019-01-23T18:39:24.960Z,27.33
2019-01-23T18:42:03.958Z,29.83
2019-01-23T18:44:46.058Z,28.17
2019-01-23T18:47:23.187Z,27.23
2019-01-23T18:49:59.195Z,30.07
2019-01-23T18:52:30.019Z,29.47
2019-01-23T18:55:02.217Z,30.17
2019-01-23T18:57:33.685Z,31.70
2019-01-23T19:00:05.514Z,28.10
2019-01-23T19:02:36.680Z,23.10
2019-01-23T19:05:10.889Z,28.63
2019-01-23T19:07:42.080Z,30.53
2019-01-23T19:10:18.925Z,28.23
2019-01-23T19:12:50.216Z,30.17
2019-01-23T19:15:23.113Z,29.80
2019-01-23T19:17:55.117Z,30.93
2019-01-23T19:20:26.251Z,28.93
2019-01-23T19:22:58.276Z,26.20
2019-01-23T19:25:32.961Z,29.83
2019-01-23T19:28:04.199Z,28.97
2019-01-23T19:30:36.173Z,30.67
2019-01-23T19:33:13.502Z,30.57
2019-01-23T19:35:42.246Z,30.23
2019-01-23T19:38:13.450Z,30.23
2019-01-23T19:40:44.585Z,26.30
2019-01-23T19:43:17.013Z,29.53
2019-01-23T19:45:48.145Z,29.33
2019-01-23T19:48:19.375Z,27.37
2019-01-23T19:50:50.693Z,29.23
2019-01-23T19:53:21.601Z,30.03
2019-01-23T19:55:52.465Z,30.13
2019-01-23T19:58:24.715Z,30.00
2019-01-23T20:00:55.099Z,28.27
2019-01-23T20:03:25.911Z,28.10
2019-01-23T20:05:56.071Z,29.77
2019-01-23T20:08:27.121Z,30.00
2019-01-23T20:10:57.861Z,29.47
2019-01-23T20:13:29.598Z,30.93
2019-01-23T20:15:59.489Z,31.70
2019-01-23T20:18:29.276Z,30.80
2019-01-23T20:21:01.621Z,30.73
2019-01-23T20:23:34.583Z,30.20
2019-01-23T20:26:04.750Z,30.33
2019-01-23T20:28:35.690Z,30.53
2019-01-23T20:31:06.501Z,27.97
2019-01-23T20:33:36.574Z,29.73
2019-01-23T20:36:09.653Z,27.67
2019-01-23T20:38:40.865Z,29.87
2019-01-23T20:41:14.892Z,29.73
2019-01-23T20:43:47.738Z,28.67
2019-01-23T20:46:20.631Z,28.80
2019-01-23T20:51:41.435Z,29.50
2019-01-23T20:54:12.689Z,29.53
2019-01-23T20:56:47.275Z,26.50
2019-01-23T20:59:18.041Z,28.70
2019-01-23T21:01:49.059Z,28.60
2019-01-23T21:04:20.332Z,26.67
2019-01-23T21:06:51.581Z,27.87
2019-01-23T21:09:21.862Z,29.33
2019-01-23T21:11:54.058Z,28.93
2019-01-23T21:14:23.810Z,26.40
2019-01-23T21:16:54.007Z,29.17
2019-01-23T21:19:23.694Z,30.20
2019-01-23T21:21:56.526Z,26.63
2019-01-23T21:24:26.789Z,29.33
2019-01-23T21:26:58.078Z,28.83
2019-01-23T21:29:29.090Z,27.53
2019-01-23T21:32:02.829Z,26.80
2019-01-23T21:34:34.402Z,27.87
2019-01-23T21:37:07.085Z,26.97
2019-01-23T21:39:39.145Z,29.87
2019-01-23T21:42:13.125Z,29.03
2019-01-23T21:44:46.058Z,29.00
2019-01-23T21:47:16.310Z,25.37
2019-01-23T21:49:49.765Z,26.83
2019-01-23T21:52:20.940Z,26.50
2019-01-23T21:54:52.122Z,29.27
2019-01-23T21:57:25.925Z,28.97
2019-01-23T21:59:57.214Z,28.17
2019-01-23T22:02:28.013Z,28.63
2019-01-23T22:04:57.845Z,28.30
2019-01-23T22:07:28.952Z,28.07
2019-01-23T22:10:00.176Z,25.30
2019-01-23T22:12:32.805Z,28.13
2019-01-23T22:15:04.310Z,27.63
2019-01-23T22:17:37.678Z,29.13
2019-01-23T22:20:13.244Z,27.90
2019-01-23T22:22:44.444Z,29.23
2019-01-23T22:25:16.329Z,28.93
2019-01-23T22:27:48.750Z,28.43
2019-01-23T22:30:23.069Z,30.17
2019-01-23T22:32:54.113Z,27.73
2019-01-23T22:35:28.313Z,30.27
2019-01-23T22:37:58.580Z,30.77
2019-01-23T22:40:28.916Z,28.87
2019-01-23T22:42:58.354Z,29.20
2019-01-23T22:45:29.429Z,30.77
2019-01-23T22:47:59.191Z,28.17
2019-01-23T22:50:30.324Z,29.77
2019-01-23T22:53:02.924Z,30.00
2019-01-23T22:55:33.794Z,30.30
2019-01-23T22:58:03.913Z,29.30
2019-01-23T23:00:41.251Z,26.67
2019-01-23T23:03:14.224Z,29.87
2019-01-23T23:05:45.902Z,29.67
2019-01-23T23:08:17.059Z,30.80
2019-01-23T23:10:47.270Z,29.90
2019-01-23T23:13:17.980Z,31.93
2019-01-23T23:15:49.173Z,30.67
2019-01-23T23:18:19.370Z,27.30
2019-01-23T23:20:49.581Z,31.40
2019-01-23T23:23:22.963Z,31.67
2019-01-23T23:25:53.113Z,31.67
2019-01-23T23:28:26.541Z,30.07
2019-01-23T23:30:56.957Z,30.53
2019-01-23T23:33:27.249Z,29.43
2019-01-23T23:35:57.461Z,30.83
2019-01-23T23:38:30.661Z,31.40
2019-01-23T23:41:02.949Z,27.47
2019-01-23T23:43:35.503Z,29.97
2019-01-23T23:46:06.579Z,26.40
2019-01-23T23:48:39.016Z,29.90
2019-01-23T23:51:10.142Z,28.77
2019-01-23T23:53:39.901Z,28.60
2019-01-23T23:56:11.125Z,29.20
2019-01-23T23:58:42.068Z,30.00
